createdAt,value
2022-11-08T00:00:43.843Z,9.13
2022-11-08T00:03:11.108Z,6.28
2022-11-08T00:05:56.717Z,6.97
2022-11-08T00:08:42.633Z,6.70
2022-11-08T00:11:28.246Z,4.28
2022-11-08T00:14:01.385Z,4.43
2022-11-08T00:16:29.579Z,5.88
2022-11-08T00:18:56.779Z,5.15
2022-11-08T00:21:24.619Z,4.90
2022-11-08T00:23:51.566Z,6.18
2022-11-08T00:26:18.143Z,2.80
2022-11-08T00:28:44.852Z,3.22
2022-11-08T00:31:11.710Z,4.90
2022-11-08T00:33:38.806Z,2.88
2022-11-08T00:36:06.093Z,3.85
2022-11-08T00:38:32.848Z,2.45
2022-11-08T00:41:00.832Z,3.53
2022-11-08T00:43:27.588Z,4.07
2022-11-08T00:45:57.027Z,4.10
2022-11-08T00:48:24.015Z,3.50
2022-11-08T00:50:50.874Z,3.10
2022-11-08T00:53:17.708Z,2.72
2022-11-08T00:55:44.388Z,2.30
2022-11-08T00:58:11.346Z,1.92
2022-11-08T01:00:38.225Z,2.95
2022-11-08T01:03:18.944Z,2.60
2022-11-08T01:05:46.800Z,2.90
2022-11-08T01:08:13.887Z,2.83
2022-11-08T01:10:42.806Z,4.70
2022-11-08T01:13:09.801Z,3.78
2022-11-08T01:15:37.885Z,3.30
2022-11-08T01:18:04.745Z,3.60
2022-11-08T01:20:31.420Z,2.75
2022-11-08T01:22:58.063Z,2.63
2022-11-08T01:25:25.093Z,3.15
2022-11-08T01:27:51.692Z,2.75
2022-11-08T01:30:18.353Z,3.53
2022-11-08T01:32:45.002Z,4.05
2022-11-08T01:35:11.561Z,4.72
2022-11-08T01:37:38.153Z,3.05
2022-11-08T01:40:05.294Z,4.93
2022-11-08T01:42:32.842Z,3.50
2022-11-08T01:45:08.199Z,3.92
2022-11-08T01:47:35.210Z,3.75
2022-11-08T01:50:14.657Z,5.18
2022-11-08T01:52:49.146Z,4.63
2022-11-08T01:55:23.552Z,4.15
2022-11-08T01:57:57.631Z,4.25
2022-11-08T02:00:24.328Z,3.47
2022-11-08T02:02:59.233Z,4.30
2022-11-08T02:05:27.071Z,5.03
2022-11-08T02:08:11.226Z,3.97
2022-11-08T02:10:40.768Z,5.07
2022-11-08T02:13:14.672Z,5.82
2022-11-08T02:15:42.903Z,6.53
2022-11-08T02:18:10.362Z,4.53
2022-11-08T02:20:37.358Z,5.25
2022-11-08T02:23:27.519Z,5.95
2022-11-08T02:25:54.440Z,4.50
2022-11-08T02:28:21.489Z,4.30
2022-11-08T02:30:48.317Z,3.88
2022-11-08T02:33:20.366Z,4.70
2022-11-08T02:35:50.111Z,3.58
2022-11-08T02:38:18.161Z,3.65
2022-11-08T02:40:53.447Z,3.15
2022-11-08T02:43:24.267Z,2.88
2022-11-08T02:45:52.110Z,3.90
2022-11-08T02:48:20.061Z,5.72
2022-11-08T02:50:47.181Z,3.25
2022-11-08T02:53:14.147Z,4.80
2022-11-08T02:55:40.840Z,3.83
2022-11-08T02:58:07.547Z,3.55
2022-11-08T03:00:35.030Z,3.55
2022-11-08T03:03:02.153Z,2.60
2022-11-08T03:05:29.288Z,2.65
2022-11-08T03:07:56.348Z,2.88
2022-11-08T03:10:24.891Z,3.60
2022-11-08T03:13:02.866Z,3.47
2022-11-08T03:15:30.195Z,4.75
2022-11-08T03:17:57.478Z,3.78
2022-11-08T03:20:28.263Z,3.33
2022-11-08T03:22:59.697Z,3.25
2022-11-08T03:25:26.701Z,4.85
2022-11-08T03:27:53.441Z,3.05
2022-11-08T03:30:20.158Z,2.97
2022-11-08T03:32:47.433Z,2.58
2022-11-08T03:35:14.507Z,2.40
2022-11-08T03:37:41.160Z,3.97
2022-11-08T03:40:08.571Z,2.67
2022-11-08T03:42:35.150Z,2.47
2022-11-08T03:45:01.727Z,3.42
2022-11-08T03:47:28.340Z,3.22
2022-11-08T03:49:54.921Z,2.20
2022-11-08T03:52:21.464Z,6.47
2022-11-08T03:54:48.077Z,4.32
2022-11-08T03:57:14.664Z,3.95
2022-11-08T03:59:41.298Z,3.47
2022-11-08T04:02:07.935Z,3.45
2022-11-08T04:04:34.621Z,3.53
2022-11-08T04:07:01.180Z,2.90
2022-11-08T04:09:27.769Z,3.78
2022-11-08T04:12:12.806Z,2.67
2022-11-08T04:14:57.988Z,3.85
2022-11-08T04:17:44.537Z,3.08
2022-11-08T04:20:29.930Z,2.58
2022-11-08T04:22:57.331Z,3.17
2022-11-08T04:25:23.927Z,3.25
2022-11-08T04:27:50.636Z,3.25
2022-11-08T04:30:17.314Z,3.75
2022-11-08T04:32:43.911Z,5.35
2022-11-08T04:35:10.504Z,4.32
2022-11-08T04:37:37.079Z,4.07
2022-11-08T04:40:04.066Z,3.22
2022-11-08T04:42:30.651Z,3.47
2022-11-08T04:44:57.204Z,3.55
2022-11-08T04:47:23.813Z,3.85
2022-11-08T04:49:50.380Z,3.33
2022-11-08T04:52:16.985Z,4.55
2022-11-08T04:54:46.163Z,4.88
2022-11-08T04:57:13.106Z,3.88
2022-11-08T04:59:39.709Z,4.07
2022-11-08T05:02:06.604Z,2.97
2022-11-08T05:04:33.209Z,3.35
2022-11-08T05:07:02.371Z,5.18
2022-11-08T05:09:28.963Z,4.75
2022-11-08T05:11:55.532Z,4.55
2022-11-08T05:14:22.163Z,5.35
2022-11-08T05:16:48.925Z,7.47
2022-11-08T05:19:35.480Z,6.90
2022-11-08T05:22:20.447Z,6.80
2022-11-08T05:24:47.057Z,5.70
2022-11-08T05:27:13.677Z,6.85
2022-11-08T05:29:42.319Z,5.70
2022-11-08T05:32:09.082Z,6.47
2022-11-08T05:34:35.654Z,5.03
2022-11-08T05:37:02.318Z,6.50
2022-11-08T05:39:32.076Z,6.97
2022-11-08T05:41:59.018Z,5.05
2022-11-08T05:44:25.591Z,4.30
2022-11-08T05:46:52.196Z,5.75
2022-11-08T05:49:18.801Z,4.63
2022-11-08T05:51:45.452Z,4.15
2022-11-08T05:54:13.129Z,4.65
2022-11-08T05:56:39.907Z,5.00
2022-11-08T05:59:06.564Z,7.43
2022-11-08T06:01:33.460Z,5.40
2022-11-08T06:04:00.090Z,5.13
2022-11-08T06:06:26.945Z,5.95
2022-11-08T06:08:54.271Z,5.18
2022-11-08T06:11:26.935Z,5.57
2022-11-08T06:13:54.599Z,4.38
2022-11-08T06:16:23.311Z,4.35
2022-11-08T06:18:49.995Z,3.90
2022-11-08T06:21:19.620Z,4.43
2022-11-08T06:23:47.022Z,3.83
2022-11-08T06:26:13.967Z,4.90
2022-11-08T06:28:40.631Z,4.68
2022-11-08T06:31:08.030Z,5.35
2022-11-08T06:33:35.220Z,6.53
2022-11-08T06:36:02.062Z,6.25
2022-11-08T06:38:29.006Z,4.25
2022-11-08T06:40:59.760Z,5.45
2022-11-08T06:43:27.017Z,6.45
2022-11-08T06:45:53.767Z,9.20
2022-11-08T06:48:20.354Z,7.03
2022-11-08T06:50:46.959Z,6.97
2022-11-08T06:53:14.369Z,5.78
2022-11-08T06:55:41.463Z,6.00
2022-11-08T06:58:08.092Z,5.53
2022-11-08T07:00:35.071Z,7.28
2022-11-08T07:03:03.722Z,4.90
2022-11-08T07:05:34.218Z,6.03
2022-11-08T07:08:02.412Z,6.78
2022-11-08T07:10:31.058Z,5.85
2022-11-08T07:13:09.740Z,5.22
2022-11-08T07:15:37.096Z,5.78
2022-11-08T07:18:06.108Z,5.50
2022-11-08T07:20:33.206Z,6.70
2022-11-08T07:23:00.072Z,6.53
2022-11-08T07:25:28.011Z,9.10
2022-11-08T07:27:58.390Z,5.97
2022-11-08T07:30:26.001Z,6.60
2022-11-08T07:32:53.125Z,4.72
2022-11-08T07:35:19.950Z,7.40
2022-11-08T07:37:46.895Z,6.15
2022-11-08T07:40:14.419Z,7.97
2022-11-08T07:43:05.184Z,5.57
2022-11-08T07:45:29.168Z,6.25
2022-11-08T07:48:00.065Z,5.85
2022-11-08T07:50:27.647Z,5.72
2022-11-08T07:52:54.592Z,5.05
2022-11-08T07:55:21.361Z,7.00
2022-11-08T07:57:47.994Z,4.78
2022-11-08T08:00:15.272Z,6.78
2022-11-08T08:02:42.008Z,5.25
2022-11-08T08:05:08.900Z,8.80
2022-11-08T08:07:36.544Z,5.97
2022-11-08T08:10:04.488Z,4.78
2022-11-08T08:12:31.179Z,4.43
2022-11-08T08:14:57.807Z,3.30
2022-11-08T08:17:24.479Z,4.05
2022-11-08T08:19:51.102Z,3.97
2022-11-08T08:22:17.734Z,3.38
2022-11-08T08:24:44.313Z,5.00
2022-11-08T08:27:11.572Z,2.75
2022-11-08T08:29:38.213Z,2.75
2022-11-08T08:32:05.300Z,3.30
2022-11-08T08:34:31.945Z,4.00
2022-11-08T08:36:58.585Z,2.70
2022-11-08T08:39:25.225Z,2.78
2022-11-08T08:41:51.895Z,3.30
2022-11-08T08:44:18.534Z,3.55
2022-11-08T08:46:45.253Z,2.65
2022-11-08T08:49:11.906Z,3.50
2022-11-08T08:51:38.558Z,2.50
2022-11-08T08:54:05.889Z,5.18
2022-11-08T08:56:32.495Z,4.65
2022-11-08T09:01:45.772Z,4.05
2022-11-08T09:04:12.473Z,5.13
2022-11-08T09:06:39.213Z,4.40
2022-11-08T09:09:06.444Z,3.08
2022-11-08T09:11:33.058Z,3.00
2022-11-08T09:13:59.688Z,4.88
2022-11-08T09:16:26.351Z,4.88
2022-11-08T09:18:53.009Z,4.57
2022-11-08T09:21:19.701Z,5.10
2022-11-08T09:23:46.413Z,7.82
2022-11-08T09:26:13.092Z,4.78
2022-11-08T09:28:39.773Z,4.18
2022-11-08T09:31:09.219Z,4.53
2022-11-08T09:33:37.603Z,3.67
2022-11-08T09:36:05.576Z,4.55
2022-11-08T09:38:32.887Z,4.20
2022-11-08T09:41:21.783Z,7.32
2022-11-08T09:44:09.783Z,5.97
2022-11-08T09:46:44.739Z,6.30
2022-11-08T09:49:22.806Z,4.90
2022-11-08T09:51:50.189Z,3.50
2022-11-08T09:54:25.418Z,5.72
2022-11-08T09:56:55.435Z,4.05
2022-11-08T09:59:30.402Z,3.58
2022-11-08T10:01:57.212Z,2.50
2022-11-08T10:04:27.552Z,3.08
2022-11-08T10:07:16.307Z,2.42
2022-11-08T10:10:03.547Z,2.22
2022-11-08T10:12:43.611Z,2.42
2022-11-08T10:16:04.520Z,2.47
2022-11-08T10:19:00.320Z,3.45
2022-11-08T10:21:53.693Z,5.80
2022-11-08T10:24:31.965Z,2.80
2022-11-08T10:27:00.287Z,4.68
2022-11-08T10:29:36.525Z,4.05
2022-11-08T10:32:21.484Z,3.85
2022-11-08T10:35:16.058Z,4.07
2022-11-08T10:37:44.596Z,3.22
2022-11-08T10:40:21.226Z,3.70
2022-11-08T10:42:57.302Z,2.97
2022-11-08T10:45:24.044Z,3.30
2022-11-08T10:47:52.118Z,2.42
2022-11-08T10:50:28.752Z,4.35
2022-11-08T10:53:00.456Z,2.75
2022-11-08T10:55:38.351Z,3.00
2022-11-08T10:58:28.918Z,3.50
2022-11-08T11:01:04.177Z,4.20
2022-11-08T11:03:31.527Z,4.03
2022-11-08T11:06:06.158Z,2.00
2022-11-08T11:08:33.665Z,2.85
2022-11-08T11:11:24.733Z,1.75
2022-11-08T11:14:22.757Z,2.13
2022-11-08T11:16:56.382Z,1.25
2022-11-08T11:19:25.518Z,1.65
2022-11-08T11:21:58.152Z,1.73
2022-11-08T11:24:25.442Z,2.45
2022-11-08T11:26:58.117Z,1.30
2022-11-08T11:29:35.414Z,2.63
2022-11-08T11:32:32.505Z,1.10
2022-11-08T11:35:02.564Z,1.15
2022-11-08T11:37:45.134Z,1.60
2022-11-08T11:40:26.985Z,1.70
2022-11-08T11:42:59.648Z,1.35
2022-11-08T11:45:37.898Z,3.47
2022-11-08T11:48:14.839Z,1.95
2022-11-08T11:50:47.149Z,1.13
2022-11-08T11:53:23.233Z,1.27
2022-11-08T11:56:27.082Z,1.58
2022-11-08T11:58:53.666Z,1.20
2022-11-08T12:01:53.987Z,1.65
2022-11-08T12:04:41.588Z,3.20
2022-11-08T12:07:11.815Z,1.40
2022-11-08T12:10:10.575Z,1.02
2022-11-08T12:12:58.494Z,1.30
2022-11-08T12:15:33.030Z,1.65
2022-11-08T12:18:41.625Z,1.40
2022-11-08T12:21:31.946Z,2.38
2022-11-08T12:24:30.125Z,2.00
2022-11-08T12:27:28.889Z,1.85
2022-11-08T12:29:58.525Z,1.77
2022-11-08T12:32:41.757Z,1.23
2022-11-08T12:35:19.806Z,3.53
2022-11-08T12:38:00.451Z,1.25
2022-11-08T12:40:46.102Z,1.52
2022-11-08T12:43:51.322Z,1.23
2022-11-08T12:46:19.758Z,1.00
2022-11-08T12:48:49.321Z,1.58
2022-11-08T12:51:40.343Z,1.38
2022-11-08T12:54:16.020Z,1.90
2022-11-08T12:56:48.448Z,1.35
2022-11-08T12:59:21.442Z,1.23
2022-11-08T13:01:49.217Z,3.00
2022-11-08T13:04:34.127Z,1.10
2022-11-08T13:07:11.690Z,1.92
2022-11-08T13:09:47.845Z,1.55
2022-11-08T13:12:51.719Z,2.70
2022-11-08T13:15:25.223Z,2.38
2022-11-08T13:18:07.078Z,2.67
2022-11-08T13:20:40.361Z,2.80
2022-11-08T13:23:12.159Z,1.27
2022-11-08T13:25:40.112Z,1.85
2022-11-08T13:28:37.816Z,1.42
2022-11-08T13:31:31.981Z,1.73
2022-11-08T13:34:18.096Z,2.88
2022-11-08T13:36:59.085Z,3.17
2022-11-08T13:39:33.246Z,5.55
2022-11-08T13:42:24.969Z,2.38
2022-11-08T13:44:54.667Z,2.05
2022-11-08T13:47:33.648Z,1.90
2022-11-08T13:50:31.748Z,4.07
2022-11-08T13:53:04.359Z,1.80
2022-11-08T13:55:43.280Z,2.95
2022-11-08T13:58:37.904Z,2.75
2022-11-08T14:01:09.026Z,4.53
2022-11-08T14:03:35.700Z,3.05
2022-11-08T14:06:05.049Z,2.60
2022-11-08T14:08:50.449Z,1.92
2022-11-08T14:11:29.268Z,3.08
2022-11-08T14:14:16.103Z,2.30
2022-11-08T14:16:48.059Z,3.78
2022-11-08T14:19:22.962Z,2.25
2022-11-08T14:21:58.879Z,4.22
2022-11-08T14:24:29.080Z,4.57
2022-11-08T14:26:55.858Z,4.80
2022-11-08T14:29:24.275Z,3.70
2022-11-08T14:32:07.067Z,7.32
2022-11-08T14:34:35.137Z,6.55
2022-11-08T14:37:03.381Z,5.82
2022-11-08T14:39:34.481Z,4.53
2022-11-08T14:42:03.535Z,2.42
2022-11-08T14:44:31.030Z,3.08
2022-11-08T14:46:58.930Z,2.95
2022-11-08T14:49:36.504Z,2.75
2022-11-08T14:52:18.657Z,3.92
2022-11-08T14:54:47.493Z,5.82
2022-11-08T14:57:32.075Z,3.85
2022-11-08T15:00:01.978Z,4.65
2022-11-08T15:02:28.826Z,2.20
2022-11-08T15:04:55.569Z,1.50
2022-11-08T15:07:24.272Z,1.95
2022-11-08T15:09:51.778Z,2.90
2022-11-08T15:12:22.212Z,2.13
2022-11-08T15:14:59.658Z,4.40
2022-11-08T15:17:35.669Z,2.22
2022-11-08T15:20:21.850Z,2.28
2022-11-08T15:22:51.818Z,2.25
2022-11-08T15:25:29.218Z,2.10
2022-11-08T15:27:58.162Z,2.97
2022-11-08T15:30:30.661Z,2.60
2022-11-08T15:32:57.553Z,2.20
2022-11-08T15:35:32.200Z,1.70
2022-11-08T15:38:02.416Z,1.60
2022-11-08T15:40:31.962Z,1.35
2022-11-08T15:43:00.202Z,1.33
2022-11-08T15:45:33.019Z,2.60
2022-11-08T15:48:08.935Z,2.35
2022-11-08T15:50:35.758Z,3.38
2022-11-08T15:53:03.625Z,5.10
2022-11-08T15:55:35.601Z,4.85
2022-11-08T15:58:02.903Z,20.70
2022-11-08T16:00:36.250Z,7.55
2022-11-08T16:03:03.178Z,4.70
2022-11-08T16:05:32.017Z,4.40
2022-11-08T16:07:59.075Z,8.00
2022-11-08T16:10:36.976Z,7.22
2022-11-08T16:13:04.619Z,8.05
2022-11-08T16:15:34.477Z,8.02
2022-11-08T16:18:02.143Z,6.03
2022-11-08T16:20:34.574Z,5.80
2022-11-08T16:23:03.825Z,5.97
2022-11-08T16:25:35.199Z,8.77
2022-11-08T16:28:08.543Z,9.48
2022-11-08T16:30:36.137Z,8.88
2022-11-08T16:33:31.838Z,6.88
2022-11-08T16:36:01.928Z,3.75
2022-11-08T16:38:32.464Z,3.25
2022-11-08T16:40:59.113Z,5.03
2022-11-08T16:43:25.821Z,16.90
2022-11-08T16:46:07.901Z,10.98
2022-11-08T16:48:38.224Z,6.72
2022-11-08T16:51:07.626Z,3.53
2022-11-08T16:53:35.506Z,5.15
2022-11-08T16:56:02.256Z,2.13
2022-11-08T16:58:28.984Z,2.30
2022-11-08T17:00:56.513Z,3.10
2022-11-08T17:03:25.861Z,4.50
2022-11-08T17:05:53.990Z,3.45
2022-11-08T17:08:21.444Z,5.05
2022-11-08T17:10:48.445Z,6.80
2022-11-08T17:13:17.602Z,8.23
2022-11-08T17:15:44.770Z,6.95
2022-11-08T17:18:17.324Z,9.00
2022-11-08T17:20:44.620Z,8.50
2022-11-08T17:23:11.784Z,9.45
2022-11-08T17:25:40.283Z,10.70
2022-11-08T17:28:07.541Z,37.92
2022-11-08T17:30:34.222Z,25.38
2022-11-08T17:33:01.122Z,9.52
2022-11-08T17:35:27.795Z,14.98
2022-11-08T17:37:54.511Z,10.20
2022-11-08T17:40:21.160Z,9.05
2022-11-08T17:42:47.767Z,6.15
2022-11-08T17:45:14.398Z,6.68
2022-11-08T17:47:41.148Z,8.10
2022-11-08T17:50:09.905Z,8.70
2022-11-08T17:52:36.831Z,6.88
2022-11-08T17:55:04.542Z,5.40
2022-11-08T17:57:31.393Z,6.95
2022-11-08T17:59:58.341Z,6.32
2022-11-08T18:02:27.275Z,5.85
2022-11-08T18:04:54.693Z,8.77
2022-11-08T18:07:21.455Z,11.27
2022-11-08T18:09:48.245Z,9.80
2022-11-08T18:12:14.888Z,8.35
2022-11-08T18:14:41.552Z,8.55
2022-11-08T18:17:08.194Z,7.25
2022-11-08T18:19:34.887Z,9.90
2022-11-08T18:22:04.555Z,11.40
2022-11-08T18:24:31.350Z,9.10
2022-11-08T18:26:58.171Z,7.90
2022-11-08T18:29:24.808Z,7.55
2022-11-08T18:31:51.570Z,9.32
2022-11-08T18:34:18.336Z,9.57
2022-11-08T18:36:45.009Z,12.13
2022-11-08T18:39:15.349Z,9.52
2022-11-08T18:41:45.038Z,10.48
2022-11-08T18:44:11.813Z,9.27
2022-11-08T18:46:42.927Z,9.15
2022-11-08T18:49:10.083Z,7.72
2022-11-08T18:51:36.785Z,6.20
2022-11-08T18:54:03.624Z,7.03
2022-11-08T18:56:30.263Z,5.22
2022-11-08T18:58:56.961Z,6.97
2022-11-08T19:01:23.640Z,7.28
2022-11-08T19:03:50.346Z,8.35
2022-11-08T19:06:16.999Z,3.90
2022-11-08T19:08:43.697Z,3.70
2022-11-08T19:11:11.933Z,3.55
2022-11-08T19:13:40.168Z,4.95
2022-11-08T19:16:08.579Z,4.18
2022-11-08T19:18:36.283Z,4.75
2022-11-08T19:21:07.090Z,4.30
2022-11-08T19:23:34.739Z,4.13
2022-11-08T19:26:04.001Z,5.60
2022-11-08T19:28:39.581Z,5.30
2022-11-08T19:31:06.864Z,3.85
2022-11-08T19:33:34.568Z,3.88
2022-11-08T19:36:06.846Z,5.63
2022-11-08T19:38:35.105Z,5.65
2022-11-08T19:41:07.876Z,7.05
2022-11-08T19:43:36.070Z,6.22
2022-11-08T19:46:04.966Z,6.88
2022-11-08T19:48:36.018Z,8.35
2022-11-08T19:51:04.584Z,8.52
2022-11-08T19:53:31.939Z,5.90
2022-11-08T19:56:06.090Z,5.20
2022-11-08T19:58:34.549Z,4.95
2022-11-08T20:01:18.996Z,4.22
2022-11-08T20:03:47.083Z,4.50
2022-11-08T20:06:15.492Z,3.75
2022-11-08T20:08:42.600Z,4.32
2022-11-08T20:11:13.889Z,8.00
2022-11-08T20:13:40.928Z,8.85
2022-11-08T20:16:09.736Z,8.85
2022-11-08T20:18:36.450Z,8.63
2022-11-08T20:21:07.491Z,8.30
2022-11-08T20:23:34.692Z,7.15
2022-11-08T20:26:03.213Z,12.40
2022-11-08T20:28:30.352Z,12.23
2022-11-08T20:31:05.277Z,12.18
2022-11-08T20:33:37.597Z,11.63
2022-11-08T20:36:05.656Z,20.15
2022-11-08T20:38:32.623Z,15.30
2022-11-08T20:41:00.134Z,16.75
2022-11-08T20:43:27.597Z,15.02
2022-11-08T20:46:00.084Z,13.68
2022-11-08T20:48:28.640Z,11.75
2022-11-08T20:51:00.239Z,14.25
2022-11-08T20:53:30.210Z,15.30
2022-11-08T20:55:58.632Z,14.65
2022-11-08T20:58:30.228Z,18.13
2022-11-08T21:00:58.906Z,12.45
2022-11-08T21:03:27.400Z,15.57
2022-11-08T21:05:57.418Z,17.27
2022-11-08T21:11:12.718Z,18.20
2022-11-08T21:13:41.350Z,16.52
2022-11-08T21:16:28.769Z,12.38
2022-11-08T21:18:55.573Z,10.23
2022-11-08T21:21:22.426Z,9.02
2022-11-08T21:23:49.775Z,10.68
2022-11-08T21:26:19.046Z,8.60
2022-11-08T21:28:46.488Z,8.38
2022-11-08T21:31:13.656Z,9.65
2022-11-08T21:33:40.620Z,8.52
2022-11-08T21:36:08.732Z,11.30
2022-11-08T21:38:37.054Z,14.55
2022-11-08T21:41:05.864Z,16.77
2022-11-08T21:43:37.427Z,15.02
2022-11-08T21:46:16.241Z,12.30
2022-11-08T21:48:43.310Z,14.35
2022-11-08T21:51:10.133Z,10.70
2022-11-08T21:53:42.917Z,12.63
2022-11-08T21:56:14.753Z,14.43
2022-11-08T21:58:41.375Z,14.07
2022-11-08T22:01:08.092Z,11.98
2022-11-08T22:03:35.238Z,13.77
2022-11-08T22:06:02.549Z,15.23
2022-11-08T22:08:29.290Z,15.30
2022-11-08T22:10:56.048Z,13.32
2022-11-08T22:13:22.946Z,11.55
2022-11-08T22:15:49.675Z,12.07
2022-11-08T22:18:22.668Z,13.20
2022-11-08T22:21:11.616Z,14.55
2022-11-08T22:23:38.356Z,13.00
2022-11-08T22:26:05.132Z,14.18
2022-11-08T22:28:32.143Z,14.25
2022-11-08T22:30:58.791Z,14.18
2022-11-08T22:33:25.453Z,10.95
2022-11-08T22:35:52.104Z,11.90
2022-11-08T22:38:19.195Z,10.32
2022-11-08T22:40:46.362Z,10.98
2022-11-08T22:43:13.537Z,12.40
2022-11-08T22:45:41.733Z,11.57
2022-11-08T22:48:09.368Z,12.68
2022-11-08T22:50:37.120Z,10.52
2022-11-08T22:53:04.397Z,12.40
2022-11-08T22:55:31.099Z,9.95
2022-11-08T22:57:57.816Z,7.50
2022-11-08T23:00:24.584Z,12.20
2022-11-08T23:02:51.275Z,11.45
2022-11-08T23:05:17.931Z,10.27
2022-11-08T23:07:44.506Z,10.35
2022-11-08T23:10:11.279Z,12.10
2022-11-08T23:12:56.198Z,10.82
2022-11-08T23:15:41.804Z,9.77
2022-11-08T23:18:08.467Z,9.60
2022-11-08T23:20:53.736Z,10.98
2022-11-08T23:23:38.627Z,10.68
2022-11-08T23:26:05.265Z,10.63
2022-11-08T23:28:50.491Z,10.40
2022-11-08T23:31:35.125Z,9.55
2022-11-08T23:34:03.218Z,10.40
2022-11-08T23:36:30.036Z,10.48
2022-11-08T23:38:57.664Z,10.10
2022-11-08T23:41:43.311Z,9.88
2022-11-08T23:44:25.462Z,12.35
2022-11-08T23:46:57.641Z,10.88
2022-11-08T23:49:24.980Z,10.95
2022-11-08T23:51:52.266Z,14.38
2022-11-08T23:54:19.219Z,28.38
2022-11-08T23:56:46.636Z,34.65
2022-11-08T23:59:15.125Z,21.77
